createdAt,value
2022-08-18T00:01:25.125Z,12.80
2022-08-18T00:03:59.182Z,12.50
2022-08-18T00:06:31.571Z,12.80
2022-08-18T00:09:04.089Z,13.50
2022-08-18T00:11:40.911Z,13.00
2022-08-18T00:14:21.730Z,12.40
2022-08-18T00:16:54.426Z,12.30
2022-08-18T00:19:46.593Z,12.80
2022-08-18T00:22:17.388Z,12.20
2022-08-18T00:24:49.990Z,13.90
2022-08-18T00:27:31.474Z,13.20
2022-08-18T00:30:07.380Z,12.60
2022-08-18T00:32:43.290Z,13.80
2022-08-18T00:35:28.995Z,13.40
2022-08-18T00:38:02.642Z,13.80
2022-08-18T00:40:49.085Z,12.30
2022-08-18T00:43:39.977Z,12.90
2022-08-18T00:46:23.390Z,12.30
2022-08-18T00:48:52.871Z,12.40
2022-08-18T00:51:33.478Z,12.60
2022-08-18T00:54:16.270Z,15.10
2022-08-18T00:56:49.712Z,13.10
2022-08-18T00:59:32.046Z,14.20
2022-08-18T01:02:05.734Z,12.60
2022-08-18T01:04:45.162Z,13.70
2022-08-18T01:07:25.073Z,13.70
2022-08-18T01:09:53.378Z,12.50
2022-08-18T01:12:45.010Z,12.90
2022-08-18T01:15:13.861Z,11.70
2022-08-18T01:18:22.251Z,11.90
2022-08-18T01:21:38.346Z,12.80
2022-08-18T01:24:13.074Z,12.00
2022-08-18T01:26:46.455Z,13.00
2022-08-18T01:29:19.230Z,11.80
2022-08-18T01:31:56.912Z,12.40
2022-08-18T01:34:28.491Z,12.60
2022-08-18T01:36:57.628Z,11.50
2022-08-18T01:41:11.076Z,13.00
2022-08-18T01:42:17.428Z,13.00
2022-08-18T01:44:48.478Z,14.30
2022-08-18T01:47:18.733Z,14.30
2022-08-18T01:49:47.026Z,14.50
2022-08-18T01:52:21.111Z,12.90
2022-08-18T01:54:51.006Z,13.50
2022-08-18T01:57:22.364Z,13.70
2022-08-18T01:59:50.663Z,15.00
2022-08-18T02:02:25.692Z,13.60
2022-08-18T02:05:02.303Z,14.50
2022-08-18T02:07:36.277Z,13.40
2022-08-18T02:10:12.258Z,13.30
2022-08-18T02:12:42.002Z,14.20
2022-08-18T02:15:12.152Z,13.80
2022-08-18T02:17:45.677Z,14.40
2022-08-18T02:20:19.024Z,14.30
2022-08-18T02:22:48.829Z,14.50
2022-08-18T02:25:18.665Z,14.40
2022-08-18T02:27:47.072Z,13.30
2022-08-18T02:30:18.843Z,12.70
2022-08-18T02:32:47.543Z,12.50
2022-08-18T02:35:16.687Z,13.00
2022-08-18T02:37:48.333Z,13.50
2022-08-18T02:40:17.966Z,11.40
2022-08-18T02:42:47.235Z,13.20
2022-08-18T02:45:16.062Z,13.40
2022-08-18T02:47:45.270Z,13.10
2022-08-18T02:50:13.991Z,13.90
2022-08-18T02:52:42.486Z,13.80
2022-08-18T02:55:11.785Z,15.10
2022-08-18T02:57:46.269Z,14.50
2022-08-18T03:00:19.888Z,14.00
2022-08-18T03:02:53.490Z,15.50
2022-08-18T03:05:21.849Z,14.40
2022-08-18T03:07:51.181Z,13.60
2022-08-18T03:10:33.095Z,15.70
2022-08-18T03:13:03.024Z,13.70
2022-08-18T03:15:31.717Z,12.80
2022-08-18T03:18:00.854Z,16.20
2022-08-18T03:20:30.505Z,15.20
2022-08-18T03:23:09.614Z,15.40
2022-08-18T03:25:48.417Z,14.90
2022-08-18T03:28:17.539Z,15.70
2022-08-18T03:30:46.043Z,15.70
2022-08-18T03:33:14.322Z,16.10
2022-08-18T03:35:42.603Z,16.50
2022-08-18T03:38:11.810Z,17.00
2022-08-18T03:40:40.210Z,17.50
2022-08-18T03:43:50.101Z,16.80
2022-08-18T03:46:05.979Z,16.90
2022-08-18T03:48:34.238Z,16.80
2022-08-18T03:51:08.383Z,15.80
2022-08-18T03:53:38.219Z,16.90
2022-08-18T03:56:17.593Z,19.10
2022-08-18T03:58:55.831Z,15.90
2022-08-18T04:01:29.442Z,15.20
2022-08-18T04:04:02.366Z,16.80
2022-08-18T04:06:41.047Z,15.60
2022-08-18T04:09:15.463Z,16.60
2022-08-18T04:11:45.129Z,16.60
2022-08-18T04:14:17.874Z,16.70
2022-08-18T04:16:49.030Z,16.70
2022-08-18T04:19:23.080Z,18.40
2022-08-18T04:21:58.327Z,17.40
2022-08-18T04:24:31.921Z,17.90
2022-08-18T04:27:04.936Z,18.90
2022-08-18T04:29:33.318Z,18.70
2022-08-18T04:32:04.906Z,18.70
2022-08-18T04:34:34.595Z,17.40
2022-08-18T04:37:03.144Z,19.30
2022-08-18T04:39:32.002Z,18.30
2022-08-18T04:42:01.718Z,17.90
2022-08-18T04:44:29.995Z,20.40
2022-08-18T04:46:58.327Z,19.80
2022-08-18T04:49:26.775Z,19.30
2022-08-18T04:52:37.936Z,20.70
2022-08-18T04:55:03.060Z,18.70
2022-08-18T04:57:35.151Z,20.00
2022-08-18T05:00:06.692Z,19.90
2022-08-18T05:02:35.097Z,20.70
2022-08-18T05:05:05.378Z,21.50
2022-08-18T05:07:33.783Z,21.60
2022-08-18T05:10:02.773Z,17.90
2022-08-18T05:12:31.108Z,19.70
2022-08-18T05:14:59.462Z,19.60
2022-08-18T05:17:30.471Z,22.00
2022-08-18T05:20:01.069Z,20.80
2022-08-18T05:22:37.014Z,20.10
2022-08-18T05:27:54.743Z,20.60
2022-08-18T05:30:23.002Z,20.70
2022-08-18T05:32:51.511Z,20.20
2022-08-18T05:35:29.057Z,22.10
2022-08-18T05:38:22.562Z,21.80
2022-08-18T05:41:14.135Z,22.00
2022-08-18T05:43:51.787Z,20.80
2022-08-18T05:46:35.602Z,21.30
2022-08-18T05:49:05.143Z,22.10
2022-08-18T05:51:47.974Z,24.60
2022-08-18T05:54:38.465Z,21.60
2022-08-18T05:57:24.324Z,26.50
2022-08-18T05:59:53.945Z,24.40
2022-08-18T06:02:52.517Z,25.40
2022-08-18T06:05:29.040Z,23.60
2022-08-18T06:08:02.335Z,24.40
2022-08-18T06:10:31.330Z,23.60
2022-08-18T06:13:02.510Z,23.70
2022-08-18T06:16:27.170Z,23.20
2022-08-18T06:19:27.880Z,24.30
2022-08-18T06:22:36.356Z,23.80
2022-08-18T06:25:25.088Z,23.40
2022-08-18T06:28:07.823Z,24.70
2022-08-18T06:30:47.391Z,21.00
2022-08-18T06:34:07.097Z,25.80
2022-08-18T06:37:02.468Z,23.00
2022-08-18T06:39:52.455Z,23.20
2022-08-18T06:42:30.390Z,21.00
2022-08-18T06:45:08.563Z,22.70
2022-08-18T06:47:54.842Z,23.90
2022-08-18T06:50:38.823Z,21.90
2022-08-18T06:53:25.921Z,23.50
2022-08-18T06:55:56.635Z,23.50
2022-08-18T06:58:30.789Z,22.80
2022-08-18T07:01:06.021Z,20.80
2022-08-18T07:03:44.545Z,22.40
2022-08-18T07:06:18.795Z,22.20
2022-08-18T07:08:49.911Z,21.30
2022-08-18T07:11:36.617Z,21.20
2022-08-18T07:14:27.068Z,20.40
2022-08-18T07:17:53.027Z,20.10
2022-08-18T07:20:25.884Z,23.70
2022-08-18T07:23:01.801Z,20.20
2022-08-18T07:25:43.180Z,21.50
2022-08-18T07:28:39.855Z,20.50
2022-08-18T07:31:34.996Z,21.50
2022-08-18T07:34:08.526Z,18.70
2022-08-18T07:36:47.133Z,21.00
2022-08-18T07:39:33.024Z,18.80
2022-08-18T07:42:14.478Z,19.00
2022-08-18T07:45:24.146Z,19.10
2022-08-18T07:48:37.757Z,17.70
2022-08-18T07:51:27.001Z,17.20
2022-08-18T07:54:49.017Z,16.70
2022-08-18T07:57:42.399Z,15.70
2022-08-18T08:00:47.767Z,16.60
2022-08-18T08:03:47.653Z,15.40
2022-08-18T08:06:38.941Z,16.70
2022-08-18T08:09:35.135Z,17.10
2022-08-18T08:12:26.823Z,15.30
2022-08-18T08:15:26.964Z,14.90
2022-08-18T08:18:11.653Z,15.70
2022-08-18T08:20:54.411Z,14.30
2022-08-18T08:23:47.069Z,16.00
2022-08-18T08:26:32.906Z,15.80
2022-08-18T08:29:43.089Z,15.90
2022-08-18T08:35:49.578Z,16.10
2022-08-18T08:38:46.359Z,16.20
2022-08-18T08:42:29.152Z,14.90
2022-08-18T08:45:01.034Z,13.10
2022-08-18T08:47:40.076Z,12.90
2022-08-18T08:50:18.362Z,12.70
2022-08-18T08:52:57.327Z,11.80
2022-08-18T08:55:32.850Z,13.60
2022-08-18T08:58:31.421Z,13.50
2022-08-18T09:01:15.703Z,12.60
2022-08-18T09:03:53.015Z,12.60
2022-08-18T09:06:55.765Z,13.00
2022-08-18T09:10:14.375Z,13.10
2022-08-18T09:13:05.883Z,13.10
2022-08-18T09:15:52.226Z,12.80
2022-08-18T09:18:51.083Z,11.80
2022-08-18T09:21:57.455Z,12.40
2022-08-18T09:24:41.450Z,12.20
2022-08-18T09:28:07.300Z,10.70
2022-08-18T09:31:08.712Z,11.70
2022-08-18T09:33:40.749Z,11.00
2022-08-18T09:36:35.220Z,10.90
2022-08-18T09:39:25.000Z,11.60
2022-08-18T09:42:16.638Z,10.20
2022-08-18T09:44:47.440Z,11.70
2022-08-18T09:47:24.370Z,10.20
2022-08-18T09:52:45.488Z,9.70
2022-08-18T09:55:18.120Z,9.80
2022-08-18T09:57:48.038Z,9.40
2022-08-18T10:03:25.720Z,10.30
2022-08-18T10:06:34.959Z,11.20
2022-08-18T10:09:47.340Z,10.00
2022-08-18T10:12:27.321Z,9.30
2022-08-18T10:15:33.093Z,9.40
2022-08-18T10:18:23.656Z,10.40
2022-08-18T10:27:02.705Z,8.60
2022-08-18T10:29:41.489Z,7.70
2022-08-18T10:32:14.257Z,8.20
2022-08-18T10:34:57.543Z,8.00
2022-08-18T10:37:49.035Z,7.80
2022-08-18T10:40:26.639Z,7.70
2022-08-18T10:43:55.658Z,7.60
2022-08-18T10:46:34.952Z,7.60
2022-08-18T10:56:11.276Z,6.00
2022-08-18T10:59:49.192Z,7.40
2022-08-18T11:03:42.560Z,7.20
2022-08-18T11:06:18.176Z,7.40
2022-08-18T11:08:57.782Z,7.30
2022-08-18T11:11:42.235Z,7.90
2022-08-18T11:14:59.639Z,8.90
2022-08-18T11:18:00.236Z,9.40
2022-08-18T11:20:31.609Z,8.30
2022-08-18T11:23:03.500Z,8.10
2022-08-18T11:25:38.287Z,9.10
2022-08-18T11:28:34.627Z,9.70
2022-08-18T11:31:06.704Z,10.20
2022-08-18T11:33:41.932Z,8.50
2022-08-18T11:36:11.210Z,8.30
2022-08-18T11:38:39.711Z,9.00
2022-08-18T11:41:18.952Z,10.20
2022-08-18T11:43:58.224Z,10.40
2022-08-18T11:46:39.568Z,10.60
2022-08-18T11:49:36.602Z,10.70
2022-08-18T11:55:36.725Z,11.70
2022-08-18T11:58:12.539Z,12.30
2022-08-18T12:01:02.926Z,10.80
2022-08-18T12:03:49.072Z,12.50
2022-08-18T12:07:06.604Z,13.20
2022-08-18T12:10:19.396Z,13.50
2022-08-18T12:12:56.330Z,12.90
2022-08-18T12:15:44.071Z,13.10
2022-08-18T12:18:28.870Z,12.10
2022-08-18T12:20:59.468Z,13.10
2022-08-18T12:23:49.475Z,11.50
2022-08-18T12:26:38.503Z,13.00
2022-08-18T12:29:11.103Z,11.60
2022-08-18T12:31:42.328Z,11.60
2022-08-18T12:34:24.954Z,11.30
2022-08-18T12:37:01.106Z,11.40
2022-08-18T12:42:36.117Z,10.60
2022-08-18T12:45:08.986Z,10.80
2022-08-18T12:47:42.325Z,9.80
2022-08-18T12:50:13.563Z,10.20
2022-08-18T12:52:42.112Z,9.80
2022-08-18T12:55:22.112Z,9.30
2022-08-18T12:57:53.987Z,7.80
2022-08-18T13:03:17.492Z,8.70
2022-08-18T13:05:53.628Z,8.20
2022-08-18T13:08:30.367Z,7.60
2022-08-18T13:11:14.697Z,8.10
2022-08-18T13:13:45.092Z,8.20
2022-08-18T13:16:30.645Z,8.40
2022-08-18T13:19:17.309Z,8.50
2022-08-18T13:21:45.659Z,7.80
2022-08-18T13:24:58.473Z,8.30
2022-08-18T13:27:27.174Z,11.80
2022-08-18T13:35:52.019Z,7.90
2022-08-18T13:39:08.031Z,8.60
2022-08-18T13:41:39.002Z,7.80
2022-08-18T13:44:18.950Z,8.60
2022-08-18T13:46:52.287Z,7.60
2022-08-18T13:49:30.380Z,7.10
2022-08-18T13:52:00.886Z,8.00
2022-08-18T13:55:01.441Z,8.40
2022-08-18T13:57:53.758Z,7.80
2022-08-18T14:06:22.015Z,8.10
2022-08-18T14:09:54.268Z,8.20
2022-08-18T14:18:40.599Z,7.70
2022-08-18T14:21:32.931Z,7.50
2022-08-18T14:24:25.055Z,7.20
2022-08-18T14:26:53.574Z,6.80
2022-08-18T14:29:45.614Z,6.60
2022-08-18T14:32:18.276Z,6.40
2022-08-18T14:35:33.017Z,6.90
2022-08-18T14:37:58.459Z,7.10
2022-08-18T14:40:32.501Z,6.10
2022-08-18T14:43:06.445Z,6.10
2022-08-18T14:45:35.849Z,5.80
2022-08-18T14:48:11.095Z,6.90
2022-08-18T14:50:49.255Z,6.60
2022-08-18T14:53:20.587Z,6.20
2022-08-18T14:55:56.447Z,6.10
2022-08-18T14:58:31.200Z,6.10
2022-08-18T15:01:11.255Z,5.50
2022-08-18T15:03:41.429Z,7.00
2022-08-18T15:06:22.715Z,6.70
2022-08-18T15:08:51.783Z,7.40
2022-08-18T15:11:53.150Z,7.10
2022-08-18T15:21:19.470Z,6.90
2022-08-18T15:24:26.151Z,6.20
2022-08-18T15:27:06.049Z,6.20
2022-08-18T15:29:34.867Z,6.20
2022-08-18T15:32:17.667Z,6.30
2022-08-18T15:34:51.029Z,6.10
2022-08-18T15:37:25.203Z,7.20
2022-08-18T15:40:35.826Z,7.40
2022-08-18T15:43:10.583Z,6.10
2022-08-18T15:45:58.602Z,5.90
2022-08-18T15:48:53.634Z,7.40
2022-08-18T15:51:22.554Z,6.50
2022-08-18T15:53:56.372Z,5.60
2022-08-18T15:56:43.201Z,5.90
2022-08-18T15:59:40.157Z,7.40
2022-08-18T16:02:11.934Z,6.40
2022-08-18T16:04:46.619Z,6.10
2022-08-18T16:07:17.933Z,6.70
2022-08-18T16:10:02.734Z,6.40
2022-08-18T16:12:31.217Z,6.20
2022-08-18T16:15:00.085Z,6.20
2022-08-18T16:17:31.991Z,10.50
2022-08-18T16:20:01.520Z,11.80
2022-08-18T16:22:29.988Z,5.90
2022-08-18T16:24:59.009Z,6.30
2022-08-18T16:27:33.021Z,6.60
2022-08-18T16:30:06.715Z,6.60
2022-08-18T16:32:45.366Z,6.80
2022-08-18T16:35:22.958Z,6.90
2022-08-18T16:37:51.779Z,15.30
2022-08-18T16:40:20.920Z,7.70
2022-08-18T16:43:01.725Z,6.80
2022-08-18T16:45:33.549Z,8.10
2022-08-18T16:48:02.769Z,20.20
2022-08-18T16:50:31.160Z,7.80
2022-08-18T16:52:59.499Z,6.60
2022-08-18T16:55:31.651Z,6.20
2022-08-18T16:58:18.709Z,9.50
2022-08-18T17:01:05.815Z,14.70
2022-08-18T17:03:52.701Z,7.70
2022-08-18T17:06:21.014Z,7.00
2022-08-18T17:08:49.419Z,7.20
2022-08-18T17:11:20.084Z,7.60
2022-08-18T17:13:51.518Z,7.00
2022-08-18T17:16:22.440Z,7.20
2022-08-18T17:18:51.660Z,7.60
2022-08-18T17:21:27.972Z,7.80
2022-08-18T17:23:59.059Z,7.90
2022-08-18T17:26:43.064Z,8.50
2022-08-18T17:29:26.678Z,8.40
2022-08-18T17:32:04.963Z,8.60
2022-08-18T17:34:45.363Z,7.40
2022-08-18T17:37:17.925Z,8.20
2022-08-18T17:39:57.650Z,8.00
2022-08-18T17:42:31.320Z,8.10
2022-08-18T17:45:21.740Z,8.10
2022-08-18T17:48:20.056Z,8.80
2022-08-18T17:51:33.635Z,8.50
2022-08-18T17:54:38.360Z,8.80
2022-08-18T17:57:20.499Z,9.00
2022-08-18T18:00:16.381Z,8.50
2022-08-18T18:02:47.009Z,7.90
2022-08-18T18:05:20.329Z,9.40
2022-08-18T18:07:50.378Z,8.70
2022-08-18T18:10:29.251Z,9.50
2022-08-18T18:13:16.339Z,8.70
2022-08-18T18:15:50.714Z,9.10
2022-08-18T18:21:06.437Z,9.10
2022-08-18T18:23:41.523Z,10.30
2022-08-18T18:26:35.038Z,9.40
2022-08-18T18:29:37.738Z,9.10
2022-08-18T18:32:29.588Z,10.00
2022-08-18T18:35:19.941Z,9.60
2022-08-18T18:37:52.544Z,10.30
2022-08-18T18:40:34.823Z,8.20
2022-08-18T18:43:45.055Z,9.60
2022-08-18T18:46:25.134Z,9.20
2022-08-18T18:49:18.955Z,8.30
2022-08-18T18:52:23.585Z,8.30
2022-08-18T18:55:05.162Z,8.70
2022-08-18T18:58:10.372Z,9.10
2022-08-18T19:01:03.156Z,12.10
2022-08-18T19:04:02.659Z,9.60
2022-08-18T19:06:43.910Z,9.20
2022-08-18T19:09:18.992Z,9.00
2022-08-18T19:12:18.136Z,9.30
2022-08-18T19:15:00.069Z,11.70
2022-08-18T19:17:39.118Z,9.60
2022-08-18T19:20:39.565Z,9.00
2022-08-18T19:23:45.026Z,9.10
2022-08-18T19:26:27.038Z,11.30
2022-08-18T19:29:20.241Z,12.00
2022-08-18T19:32:04.759Z,10.10
2022-08-18T19:34:47.611Z,9.80
2022-08-18T19:38:20.870Z,10.80
2022-08-18T19:41:00.379Z,9.70
2022-08-18T19:43:55.270Z,9.80
2022-08-18T19:46:34.838Z,10.50
2022-08-18T19:50:06.043Z,10.60
2022-08-18T19:53:08.069Z,11.10
2022-08-18T19:56:33.111Z,10.20
2022-08-18T19:59:34.087Z,11.00
2022-08-18T20:02:40.865Z,10.60
2022-08-18T20:05:44.721Z,10.50
2022-08-18T20:08:28.786Z,10.40
2022-08-18T20:11:42.442Z,10.80
2022-08-18T20:14:18.973Z,10.00
2022-08-18T20:17:09.128Z,11.30
2022-08-18T20:20:13.191Z,11.20
2022-08-18T20:22:46.637Z,9.90
2022-08-18T20:25:16.469Z,11.10
2022-08-18T20:28:12.760Z,9.90
2022-08-18T20:31:06.124Z,9.30
2022-08-18T20:34:06.322Z,10.10
2022-08-18T20:36:36.918Z,9.70
2022-08-18T20:39:54.610Z,10.20
2022-08-18T20:42:22.845Z,9.70
2022-08-18T20:45:09.142Z,11.20
2022-08-18T20:47:58.314Z,9.60
2022-08-18T20:50:54.246Z,9.70
2022-08-18T20:54:02.831Z,10.60
2022-08-18T20:56:59.070Z,9.50
2022-08-18T20:59:39.137Z,10.20
2022-08-18T21:02:30.931Z,10.70
2022-08-18T21:05:00.791Z,10.10
2022-08-18T21:07:39.402Z,10.50
2022-08-18T21:10:29.798Z,10.00
2022-08-18T21:13:06.023Z,9.10
2022-08-18T21:15:38.140Z,10.20
2022-08-18T21:18:18.575Z,9.30
2022-08-18T21:20:49.708Z,9.80
2022-08-18T21:23:31.549Z,10.20
2022-08-18T21:26:16.257Z,14.30
2022-08-18T21:28:51.801Z,15.40
2022-08-18T21:31:44.338Z,9.90
2022-08-18T21:34:44.410Z,9.60
2022-08-18T21:37:18.077Z,9.90
2022-08-18T21:39:52.440Z,11.60
2022-08-18T21:42:40.890Z,11.90
2022-08-18T21:45:21.882Z,11.00
2022-08-18T21:48:04.638Z,9.40
2022-08-18T21:50:35.134Z,9.40
2022-08-18T21:53:22.311Z,9.10
2022-08-18T21:55:56.254Z,8.70
2022-08-18T21:58:34.486Z,9.60
2022-08-18T22:01:25.072Z,11.30
2022-08-18T22:04:04.126Z,9.50
2022-08-18T22:06:40.778Z,9.40
2022-08-18T22:09:30.859Z,9.40
2022-08-18T22:12:42.961Z,10.90
2022-08-18T22:15:31.573Z,11.00
2022-08-18T22:18:48.990Z,10.50
2022-08-18T22:22:26.451Z,9.50
2022-08-18T22:25:00.130Z,8.70
2022-08-18T22:27:29.582Z,9.80
2022-08-18T22:30:04.726Z,9.30
2022-08-18T22:32:37.570Z,13.30
2022-08-18T22:35:08.038Z,26.40
2022-08-18T22:37:48.688Z,10.20
2022-08-18T22:40:22.033Z,10.30
2022-08-18T22:42:50.554Z,9.50
2022-08-18T22:45:20.650Z,10.40
2022-08-18T22:47:49.448Z,9.80
2022-08-18T22:50:17.792Z,9.30
2022-08-18T22:52:49.567Z,9.80
2022-08-18T22:55:22.098Z,9.10
2022-08-18T22:57:55.734Z,9.80
2022-08-18T23:00:26.556Z,8.90
2022-08-18T23:02:57.404Z,9.40
2022-08-18T23:05:25.738Z,8.80
2022-08-18T23:07:54.626Z,9.10
2022-08-18T23:10:23.001Z,9.40
2022-08-18T23:12:51.535Z,9.80
2022-08-18T23:15:20.818Z,9.20
2022-08-18T23:17:49.101Z,8.10
2022-08-18T23:20:19.516Z,9.60
2022-08-18T23:22:48.648Z,9.30
2022-08-18T23:25:17.294Z,10.00
2022-08-18T23:27:45.603Z,9.30
2022-08-18T23:30:15.372Z,9.60
2022-08-18T23:32:43.717Z,8.40
2022-08-18T23:35:12.228Z,8.90
2022-08-18T23:37:41.612Z,9.80
2022-08-18T23:40:15.612Z,9.80
2022-08-18T23:42:44.131Z,9.70
2022-08-18T23:45:12.482Z,9.50
2022-08-18T23:47:41.426Z,9.10
2022-08-18T23:50:11.533Z,9.90
2022-08-18T23:52:40.799Z,9.20
2022-08-18T23:55:13.219Z,9.00
2022-08-18T23:57:41.488Z,8.10
